createdAt,value
2023-03-02T00:01:52.135Z,95346.09
2023-03-02T00:04:46.444Z,95351.97
2023-03-02T00:07:22.616Z,95354.09
2023-03-02T00:09:49.108Z,95346.59
2023-03-02T00:12:15.965Z,95346.31
2023-03-02T00:14:42.761Z,95349.50
2023-03-02T00:17:09.502Z,95338.50
2023-03-02T00:19:36.480Z,95348.66
2023-03-02T00:22:04.164Z,95351.03
2023-03-02T00:24:30.786Z,95350.72
2023-03-02T00:26:57.381Z,95346.72
2023-03-02T00:29:23.979Z,95347.78
2023-03-02T00:31:50.797Z,95354.44
2023-03-02T00:34:17.520Z,95346.69
2023-03-02T00:36:44.275Z,95355.75
2023-03-02T00:39:10.965Z,95356.81
2023-03-02T00:41:37.532Z,95353.59
2023-03-02T00:44:04.224Z,95352.81
2023-03-02T00:46:31.664Z,95347.72
2023-03-02T00:48:58.987Z,95350.63
2023-03-02T00:51:25.513Z,95354.09
2023-03-02T00:53:52.123Z,95356.22
2023-03-02T00:56:18.600Z,95342.34
2023-03-02T00:58:48.966Z,95354.63
2023-03-02T01:01:18.516Z,95343.13
2023-03-02T01:03:48.552Z,95341.50
2023-03-02T01:06:18.260Z,95338.03
2023-03-02T01:08:45.044Z,95334.84
2023-03-02T01:11:23.992Z,95337.78
2023-03-02T01:13:51.099Z,95333.25
2023-03-02T01:16:17.827Z,95330.56
2023-03-02T01:18:44.511Z,95325.47
2023-03-02T01:21:15.835Z,95317.47
2023-03-02T01:23:43.055Z,95314.78
2023-03-02T01:26:09.773Z,95319.59
2023-03-02T01:28:36.391Z,95322.53
2023-03-02T01:31:02.879Z,95307.78
2023-03-02T01:33:29.490Z,95310.47
2023-03-02T01:35:56.221Z,95322.50
2023-03-02T01:38:23.028Z,95304.03
2023-03-02T01:40:49.670Z,95304.28
2023-03-02T01:43:16.773Z,95308.28
2023-03-02T01:45:52.720Z,95312.28
2023-03-02T01:48:31.502Z,95307.19
2023-03-02T01:50:58.819Z,95308.25
2023-03-02T01:53:31.365Z,95301.28
2023-03-02T01:56:02.213Z,95302.63
2023-03-02T01:58:34.352Z,95300.19
2023-03-02T02:01:01.312Z,95298.56
2023-03-02T02:03:30.526Z,95288.16
2023-03-02T02:06:10.212Z,95286.53
2023-03-02T02:08:38.917Z,95278.50
2023-03-02T02:11:06.442Z,95279.59
2023-03-02T02:13:33.109Z,95291.31
2023-03-02T02:15:59.848Z,95288.66
2023-03-02T02:18:26.999Z,95282.53
2023-03-02T02:20:55.201Z,95275.56
2023-03-02T02:23:27.488Z,95267.50
2023-03-02T02:25:54.055Z,95269.97
2023-03-02T02:28:29.418Z,95275.03
2023-03-02T02:31:09.077Z,95264.38
2023-03-02T02:33:37.895Z,95271.88
2023-03-02T02:36:15.466Z,95269.19
2023-03-02T02:38:45.801Z,95265.47
2023-03-02T02:41:20.519Z,95277.50
2023-03-02T02:43:47.917Z,95271.91
2023-03-02T02:46:14.566Z,95263.63
2023-03-02T02:48:41.358Z,95266.03
2023-03-02T02:51:10.842Z,95266.03
2023-03-02T02:53:45.169Z,95273.00
2023-03-02T02:56:13.648Z,95270.34
2023-03-02T02:58:49.473Z,95267.41
2023-03-02T03:01:19.104Z,95264.75
2023-03-02T03:03:51.650Z,95258.59
2023-03-02T03:06:20.515Z,95256.22
2023-03-02T03:08:46.961Z,95260.19
2023-03-02T03:11:23.369Z,95264.75
2023-03-02T03:14:10.531Z,95256.19
2023-03-02T03:16:39.917Z,95249.22
2023-03-02T03:19:15.683Z,95253.78
2023-03-02T03:21:42.287Z,95257.22
2023-03-02T03:24:08.991Z,95258.28
2023-03-02T03:26:35.727Z,95257.50
2023-03-02T03:29:04.186Z,95264.72
2023-03-02T03:31:30.984Z,95259.63
2023-03-02T03:33:57.815Z,95254.28
2023-03-02T03:36:24.481Z,95251.88
2023-03-02T03:38:51.024Z,95255.59
2023-03-02T03:41:17.705Z,95254.53
2023-03-02T03:43:44.246Z,95251.03
2023-03-02T03:46:11.559Z,95252.66
2023-03-02T03:48:38.353Z,95251.88
2023-03-02T03:51:05.739Z,95251.03
2023-03-02T03:53:33.405Z,95245.69
2023-03-02T03:56:00.545Z,95245.69
2023-03-02T03:58:27.965Z,95249.19
2023-03-02T04:00:54.670Z,95245.69
2023-03-02T04:03:22.131Z,95241.97
2023-03-02T04:05:49.525Z,95247.31
2023-03-02T04:08:16.240Z,95244.66
2023-03-02T04:10:42.884Z,95248.94
2023-03-02T04:13:10.755Z,95236.63
2023-03-02T04:15:40.081Z,95249.19
2023-03-02T04:18:08.337Z,95236.09
2023-03-02T04:20:35.978Z,95239.81
2023-03-02T04:23:02.652Z,95244.63
2023-03-02T04:25:30.494Z,95242.19
2023-03-02T04:28:02.730Z,95246.72
2023-03-02T04:30:34.813Z,95245.38
2023-03-02T04:33:01.962Z,95251.78
2023-03-02T04:35:29.991Z,95247.50
2023-03-02T04:37:56.548Z,95246.69
2023-03-02T04:40:23.282Z,95251.50
2023-03-02T04:42:49.928Z,95247.44
2023-03-02T04:45:16.656Z,95248.28
2023-03-02T04:47:43.126Z,95236.50
2023-03-02T04:50:13.645Z,95238.63
2023-03-02T04:52:41.105Z,95231.66
2023-03-02T04:55:08.193Z,95234.59
2023-03-02T04:57:34.801Z,95248.19
2023-03-02T05:00:01.417Z,95234.56
2023-03-02T05:02:28.063Z,95241.75
2023-03-02T05:04:54.649Z,95241.19
2023-03-02T05:07:21.233Z,95249.19
2023-03-02T05:09:47.795Z,95254.78
2023-03-02T05:12:14.457Z,95258.53
2023-03-02T05:14:41.001Z,95256.91
2023-03-02T05:17:07.764Z,95244.09
2023-03-02T05:19:34.416Z,95248.63
2023-03-02T05:22:00.914Z,95255.25
2023-03-02T05:24:27.518Z,95249.94
2023-03-02T05:26:54.172Z,95251.25
2023-03-02T05:29:20.792Z,95258.19
2023-03-02T05:31:47.861Z,95247.75
2023-03-02T05:34:16.427Z,95245.34
2023-03-02T05:36:44.565Z,95254.19
2023-03-02T05:39:11.308Z,95252.56
2023-03-02T05:41:38.154Z,95254.44
2023-03-02T05:44:05.766Z,95256.28
2023-03-02T05:46:32.647Z,95250.13
2023-03-02T05:48:59.393Z,95248.53
2023-03-02T05:51:26.009Z,95259.19
2023-03-02T05:53:52.565Z,95254.69
2023-03-02T05:56:19.083Z,95255.47
2023-03-02T05:58:45.558Z,95250.69
2023-03-02T06:01:15.198Z,95248.59
2023-03-02T06:03:42.913Z,95254.47
2023-03-02T06:06:09.422Z,95249.38
2023-03-02T06:08:36.055Z,95251.78
2023-03-02T06:11:02.592Z,95253.13
2023-03-02T06:13:29.535Z,95266.22
2023-03-02T06:15:59.093Z,95259.03
2023-03-02T06:18:25.639Z,95263.31
2023-03-02T06:20:52.105Z,95265.72
2023-03-02T06:23:18.874Z,95272.19
2023-03-02T06:25:45.409Z,95267.63
2023-03-02T06:28:11.923Z,95267.38
2023-03-02T06:30:38.477Z,95277.00
2023-03-02T06:33:05.024Z,95280.22
2023-03-02T06:35:31.723Z,95270.91
2023-03-02T06:37:58.352Z,95279.22
2023-03-02T06:40:24.860Z,95275.53
2023-03-02T06:42:51.440Z,95262.19
2023-03-02T06:45:18.086Z,95268.41
2023-03-02T06:47:44.746Z,95262.03
2023-03-02T06:50:11.813Z,95262.84
2023-03-02T06:52:38.378Z,95259.97
2023-03-02T06:55:05.611Z,95264.28
2023-03-02T06:57:32.243Z,95261.38
2023-03-02T06:59:58.879Z,95264.09
2023-03-02T07:02:25.350Z,95271.88
2023-03-02T07:04:51.866Z,95263.63
2023-03-02T07:07:18.445Z,95267.94
2023-03-02T07:09:44.946Z,95270.63
2023-03-02T07:12:11.485Z,95262.88
2023-03-02T07:14:40.552Z,95264.00
2023-03-02T07:17:07.283Z,95265.88
2023-03-02T07:19:33.857Z,95261.63
2023-03-02T07:22:00.407Z,95262.19
2023-03-02T07:24:26.989Z,95264.06
2023-03-02T07:26:53.496Z,95268.38
2023-03-02T07:29:20.018Z,95271.88
2023-03-02T07:31:46.564Z,95266.56
2023-03-02T07:34:13.324Z,95267.88
2023-03-02T07:36:39.936Z,95275.69
2023-03-02T07:39:06.781Z,95272.75
2023-03-02T07:41:33.711Z,95272.78
2023-03-02T07:44:00.511Z,95281.63
2023-03-02T07:46:27.144Z,95277.34
2023-03-02T07:48:53.710Z,95279.50
2023-03-02T07:51:20.333Z,95283.78
2023-03-02T07:53:46.883Z,95286.75
2023-03-02T07:56:13.533Z,95285.69
2023-03-02T07:58:40.125Z,95274.44
2023-03-02T08:01:06.673Z,95277.66
2023-03-02T08:03:33.324Z,95280.09
2023-03-02T08:06:12.811Z,95283.81
2023-03-02T08:08:39.745Z,95283.84
2023-03-02T08:11:08.342Z,95283.81
2023-03-02T08:13:34.888Z,95291.31
2023-03-02T08:16:03.175Z,95294.00
2023-03-02T08:18:30.882Z,95290.25
2023-03-02T08:20:58.075Z,95295.06
2023-03-02T08:23:25.715Z,95293.94
2023-03-02T08:25:53.624Z,95302.00
2023-03-02T08:28:21.916Z,95294.75
2023-03-02T08:30:59.598Z,95290.97
2023-03-02T08:33:27.704Z,95301.13
2023-03-02T08:35:59.253Z,95290.09
2023-03-02T08:38:27.007Z,95288.50
2023-03-02T08:40:54.143Z,95286.28
2023-03-02T08:43:22.274Z,95291.91
2023-03-02T08:45:52.748Z,95288.41
2023-03-02T08:48:20.626Z,95296.63
2023-03-02T08:51:12.559Z,95286.16
2023-03-02T08:53:41.644Z,95291.22
2023-03-02T08:56:29.450Z,95288.00
2023-03-02T08:58:58.242Z,95284.22
2023-03-02T09:01:27.401Z,95286.56
2023-03-02T09:03:54.193Z,95298.31
2023-03-02T09:06:21.170Z,95289.13
2023-03-02T09:08:48.223Z,95288.00
2023-03-02T09:11:15.345Z,95287.16
2023-03-02T09:13:42.675Z,95291.13
2023-03-02T09:16:10.006Z,95285.72
2023-03-02T09:18:36.854Z,95289.69
2023-03-02T09:21:04.222Z,95288.00
2023-03-02T09:23:31.616Z,95293.63
2023-03-02T09:25:58.503Z,95290.34
2023-03-02T09:28:25.339Z,95289.19
2023-03-02T09:30:54.714Z,95295.56
2023-03-02T09:33:21.604Z,95297.63
2023-03-02T09:35:48.260Z,95294.63
2023-03-02T09:38:15.290Z,95298.88
2023-03-02T09:40:48.186Z,95290.78
2023-03-02T09:43:26.939Z,95290.44
2023-03-02T09:46:02.519Z,95288.50
2023-03-02T09:48:40.574Z,95290.38
2023-03-02T09:51:07.207Z,95288.50
2023-03-02T09:53:44.269Z,95296.09
2023-03-02T09:56:16.514Z,95300.28
2023-03-02T09:58:49.564Z,95296.06
2023-03-02T10:01:26.921Z,95297.13
2023-03-02T10:04:06.991Z,95295.66
2023-03-02T10:06:33.934Z,95290.56
2023-03-02T10:09:00.653Z,95302.88
2023-03-02T10:12:05.423Z,95301.38
2023-03-02T10:14:39.421Z,95301.78
2023-03-02T10:17:23.013Z,95300.84
2023-03-02T10:20:00.486Z,95292.44
2023-03-02T10:22:36.056Z,95292.84
2023-03-02T10:25:16.520Z,95292.19
2023-03-02T10:27:48.651Z,95296.63
2023-03-02T10:30:25.564Z,95298.44
2023-03-02T10:32:55.043Z,95295.09
2023-03-02T10:35:24.626Z,95300.31
2023-03-02T10:37:55.353Z,95296.22
2023-03-02T10:40:45.988Z,95292.84
2023-03-02T10:43:20.373Z,95295.88
2023-03-02T10:45:59.098Z,95281.41
2023-03-02T10:48:25.795Z,95288.81
2023-03-02T10:50:57.510Z,95292.00
2023-03-02T10:53:24.922Z,95292.72
2023-03-02T10:55:53.961Z,95291.31
2023-03-02T10:58:32.841Z,95288.84
2023-03-02T11:01:05.810Z,95287.66
2023-03-02T11:03:33.140Z,95279.53
2023-03-02T11:06:16.355Z,95282.63
2023-03-02T11:08:42.991Z,95281.44
2023-03-02T11:11:22.881Z,95278.22
2023-03-02T11:13:49.725Z,95282.66
2023-03-02T11:16:19.216Z,95273.16
2023-03-02T11:18:54.641Z,95271.34
2023-03-02T11:21:33.115Z,95277.75
2023-03-02T11:24:10.327Z,95275.84
2023-03-02T11:26:52.118Z,95274.00
2023-03-02T11:29:25.469Z,95279.09
2023-03-02T11:31:59.941Z,95274.75
2023-03-02T11:34:55.470Z,95271.44
2023-03-02T11:37:45.112Z,95262.22
2023-03-02T11:40:26.458Z,95251.84
2023-03-02T11:42:56.967Z,95249.31
2023-03-02T11:45:36.363Z,95248.50
2023-03-02T11:48:05.653Z,95254.75
2023-03-02T11:50:37.216Z,95252.72
2023-03-02T11:53:11.720Z,95248.63
2023-03-02T11:55:44.431Z,95248.19
2023-03-02T11:58:18.775Z,95244.56
2023-03-02T12:00:47.534Z,95246.19
2023-03-02T12:03:16.682Z,95235.72
2023-03-02T12:05:51.071Z,95233.34
2023-03-02T12:08:20.446Z,95239.91
2023-03-02T12:11:00.419Z,95251.28
2023-03-02T12:13:40.795Z,95243.31
2023-03-02T12:16:34.794Z,95233.63
2023-03-02T12:19:16.582Z,95235.66
2023-03-02T12:22:07.308Z,95240.97
2023-03-02T12:24:37.009Z,95236.72
2023-03-02T12:27:07.907Z,95238.66
2023-03-02T12:29:49.762Z,95236.94
2023-03-02T12:32:19.116Z,95236.78
2023-03-02T12:34:54.917Z,95233.91
2023-03-02T12:37:24.242Z,95231.97
2023-03-02T12:40:12.742Z,95233.91
2023-03-02T12:43:12.833Z,95236.81
2023-03-02T12:46:07.074Z,95233.31
2023-03-02T12:48:52.719Z,95224.81
2023-03-02T12:51:25.872Z,95217.19
2023-03-02T12:54:06.804Z,95216.69
2023-03-02T12:56:34.221Z,95217.50
2023-03-02T12:59:00.985Z,95209.06
2023-03-02T13:01:30.438Z,95202.69
2023-03-02T13:03:57.801Z,95205.53
2023-03-02T13:06:29.800Z,95205.09
2023-03-02T13:08:59.162Z,95210.81
2023-03-02T13:11:33.013Z,95215.75
2023-03-02T13:14:01.724Z,95211.78
2023-03-02T13:16:31.375Z,95209.06
2023-03-02T13:19:01.172Z,95201.84
2023-03-02T13:21:34.040Z,95195.78
2023-03-02T13:24:01.747Z,95198.50
2023-03-02T13:26:34.523Z,95194.00
2023-03-02T13:29:06.046Z,95193.03
2023-03-02T13:31:34.413Z,95190.13
2023-03-02T13:34:01.600Z,95192.72
2023-03-02T13:36:36.607Z,95189.81
2023-03-02T13:39:05.858Z,95194.59
2023-03-02T13:41:35.095Z,95188.50
2023-03-02T13:44:19.951Z,95188.66
2023-03-02T13:46:47.179Z,95192.78
2023-03-02T13:49:14.088Z,95191.34
2023-03-02T13:51:47.086Z,95189.91
2023-03-02T13:54:22.500Z,95187.03
2023-03-02T13:56:50.368Z,95179.19
2023-03-02T13:59:19.154Z,95188.13
2023-03-02T14:01:46.220Z,95188.13
2023-03-02T14:04:15.185Z,95183.16
2023-03-02T14:06:43.411Z,95183.63
2023-03-02T14:09:10.113Z,95178.00
2023-03-02T14:11:40.282Z,95181.69
2023-03-02T14:14:07.826Z,95190.28
2023-03-02T14:16:34.689Z,95178.47
2023-03-02T14:19:02.077Z,95178.47
2023-03-02T14:21:29.085Z,95177.69
2023-03-02T14:23:56.103Z,95178.34
2023-03-02T14:26:34.177Z,95169.59
2023-03-02T14:29:12.537Z,95172.75
2023-03-02T14:31:39.066Z,95177.69
2023-03-02T14:34:05.605Z,95174.25
2023-03-02T14:36:34.096Z,95177.06
2023-03-02T14:39:05.645Z,95172.56
2023-03-02T14:41:38.327Z,95170.31
2023-03-02T14:44:10.777Z,95171.16
2023-03-02T14:46:37.394Z,95175.66
2023-03-02T14:49:04.050Z,95165.44
2023-03-02T14:51:34.908Z,95163.38
2023-03-02T14:54:05.646Z,95162.91
2023-03-02T14:56:32.641Z,95164.03
2023-03-02T14:59:00.085Z,95169.47
2023-03-02T15:01:26.754Z,95160.53
2023-03-02T15:03:53.479Z,95163.25
2023-03-02T15:06:28.685Z,95165.50
2023-03-02T15:08:57.572Z,95171.72
2023-03-02T15:11:25.170Z,95169.81
2023-03-02T15:13:51.759Z,95175.91
2023-03-02T15:16:18.486Z,95174.63
2023-03-02T15:18:45.015Z,95173.69
2023-03-02T15:21:16.971Z,95172.66
2023-03-02T15:23:44.249Z,95184.63
2023-03-02T15:26:12.091Z,95178.75
2023-03-02T15:28:39.242Z,95180.38
2023-03-02T15:31:07.471Z,95188.06
2023-03-02T15:33:34.083Z,95194.50
2023-03-02T15:36:00.670Z,95195.59
2023-03-02T15:38:27.387Z,95197.34
2023-03-02T15:40:53.867Z,95202.50
2023-03-02T15:43:20.489Z,95199.78
2023-03-02T15:45:46.989Z,95198.84
2023-03-02T15:48:13.773Z,95211.28
2023-03-02T15:50:40.758Z,95217.03
2023-03-02T15:53:07.450Z,95219.41
2023-03-02T15:55:33.976Z,95228.19
2023-03-02T15:58:00.536Z,95215.59
2023-03-02T16:00:27.280Z,95225.09
2023-03-02T16:02:53.916Z,95232.25
2023-03-02T16:05:20.519Z,95223.94
2023-03-02T16:07:47.026Z,95231.06
2023-03-02T16:10:13.605Z,95228.63
2023-03-02T16:12:40.145Z,95241.47
2023-03-02T16:15:08.326Z,95240.75
2023-03-02T16:17:34.879Z,95248.81
2023-03-02T16:20:01.463Z,95247.00
2023-03-02T16:22:28.083Z,95253.94
2023-03-02T16:24:54.597Z,95252.41
2023-03-02T16:27:21.096Z,95253.78
2023-03-02T16:29:47.581Z,95259.53
2023-03-02T16:32:14.236Z,95262.56
2023-03-02T16:34:40.788Z,95259.81
2023-03-02T16:37:07.326Z,95270.03
2023-03-02T16:39:33.891Z,95271.34
2023-03-02T16:42:00.502Z,95265.16
2023-03-02T16:44:27.030Z,95274.03
2023-03-02T16:46:54.803Z,95286.44
2023-03-02T16:49:22.937Z,95281.53
2023-03-02T16:51:49.496Z,95287.94
2023-03-02T16:54:16.991Z,95284.69
2023-03-02T16:56:43.964Z,95300.75
2023-03-02T16:59:11.190Z,95292.56
2023-03-02T17:01:37.831Z,95306.00
2023-03-02T17:04:06.017Z,95309.38
2023-03-02T17:06:32.893Z,95312.00
2023-03-02T17:08:59.613Z,95311.88
2023-03-02T17:11:26.236Z,95317.94
2023-03-02T17:13:52.725Z,95323.44
2023-03-02T17:16:19.208Z,95320.63
2023-03-02T17:18:45.749Z,95326.41
2023-03-02T17:21:16.802Z,95331.13
2023-03-02T17:23:43.650Z,95333.66
2023-03-02T17:26:10.251Z,95342.69
2023-03-02T17:28:36.758Z,95339.00
2023-03-02T17:31:04.476Z,95343.94
2023-03-02T17:33:31.344Z,95352.69
2023-03-02T17:35:57.816Z,95353.84
2023-03-02T17:38:24.380Z,95357.16
2023-03-02T17:40:50.903Z,95365.31
2023-03-02T17:43:17.596Z,95359.47
2023-03-02T17:45:44.177Z,95362.19
2023-03-02T17:48:10.671Z,95369.53
2023-03-02T17:50:37.270Z,95367.72
2023-03-02T17:53:03.900Z,95372.59
2023-03-02T17:55:30.758Z,95370.53
2023-03-02T17:57:57.528Z,95381.84
2023-03-02T18:00:24.795Z,95378.91
2023-03-02T18:02:52.488Z,95383.00
2023-03-02T18:05:19.352Z,95386.78
2023-03-02T18:07:45.836Z,95389.78
2023-03-02T18:10:13.743Z,95394.94
2023-03-02T18:12:40.542Z,95394.69
2023-03-02T18:15:07.770Z,95399.81
2023-03-02T18:17:34.269Z,95394.75
2023-03-02T18:20:00.828Z,95400.41
2023-03-02T18:22:27.352Z,95394.78
2023-03-02T18:24:53.816Z,95403.66
2023-03-02T18:27:20.514Z,95406.09
2023-03-02T18:29:47.053Z,95392.44
2023-03-02T18:32:14.246Z,95398.63
2023-03-02T18:34:40.978Z,95406.44
2023-03-02T18:37:07.607Z,95399.47
2023-03-02T18:39:34.776Z,95398.41
2023-03-02T18:42:01.289Z,95400.84
2023-03-02T18:44:27.828Z,95404.06
2023-03-02T18:46:54.878Z,95398.19
2023-03-02T18:49:21.398Z,95403.25
2023-03-02T18:51:48.000Z,95402.75
2023-03-02T18:54:14.681Z,95409.75
2023-03-02T18:56:41.333Z,95415.13
2023-03-02T18:59:07.921Z,95409.47
2023-03-02T19:01:34.401Z,95403.06
2023-03-02T19:04:00.951Z,95414.34
2023-03-02T19:06:28.244Z,95410.28
2023-03-02T19:08:55.084Z,95412.72
2023-03-02T19:11:21.682Z,95419.16
2023-03-02T19:13:48.506Z,95415.94
2023-03-02T19:16:15.090Z,95415.44
2023-03-02T19:18:42.348Z,95416.75
2023-03-02T19:21:09.004Z,95420.78
2023-03-02T19:23:35.681Z,95417.56
2023-03-02T19:26:02.315Z,95428.84
2023-03-02T19:28:28.919Z,95432.88
2023-03-02T19:30:55.543Z,95431.53
2023-03-02T19:33:22.077Z,95442.53
2023-03-02T19:35:48.694Z,95440.38
2023-03-02T19:38:15.196Z,95442.28
2023-03-02T19:40:41.881Z,95440.91
2023-03-02T19:43:08.381Z,95444.94
2023-03-02T19:45:35.072Z,95445.19
2023-03-02T19:48:02.690Z,95445.50
2023-03-02T19:50:29.754Z,95442.53
2023-03-02T19:52:56.769Z,95445.75
2023-03-02T19:55:24.281Z,95447.09
2023-03-02T19:57:51.360Z,95448.44
2023-03-02T20:00:18.719Z,95444.13
2023-03-02T20:02:46.465Z,95452.69
2023-03-02T20:05:13.431Z,95454.06
2023-03-02T20:07:42.135Z,95445.75
2023-03-02T20:10:11.147Z,95447.88
2023-03-02T20:12:37.781Z,95450.03
2023-03-02T20:15:06.089Z,95446.53
2023-03-02T20:17:32.713Z,95448.94
2023-03-02T20:19:59.279Z,95446.25
2023-03-02T20:22:25.884Z,95442.25
2023-03-02T20:24:52.749Z,95442.50
2023-03-02T20:27:19.282Z,95450.03
2023-03-02T20:29:45.896Z,95446.78
2023-03-02T20:32:13.511Z,95449.72
2023-03-02T20:34:41.736Z,95446.53
2023-03-02T20:37:08.584Z,95459.13
2023-03-02T20:39:38.192Z,95455.34
2023-03-02T20:42:06.269Z,95452.94
2023-03-02T20:44:32.670Z,95457.75
2023-03-02T20:47:02.702Z,95455.34
2023-03-02T20:49:30.038Z,95457.50
2023-03-02T20:51:58.621Z,95467.66
2023-03-02T20:54:32.033Z,95463.66
2023-03-02T20:56:58.829Z,95464.69
2023-03-02T20:59:26.476Z,95468.44
2023-03-02T21:01:53.546Z,95467.91
2023-03-02T21:04:20.848Z,95471.66
2023-03-02T21:06:47.636Z,95470.31
2023-03-02T21:09:14.887Z,95472.16
2023-03-02T21:11:41.447Z,95470.84
2023-03-02T21:14:08.206Z,95472.72
2023-03-02T21:16:38.714Z,95473.00
2023-03-02T21:19:07.841Z,95472.44
2023-03-02T21:21:41.456Z,95478.03
2023-03-02T21:24:10.611Z,95478.31
2023-03-02T21:26:37.900Z,95474.03
2023-03-02T21:29:05.855Z,95474.28
2023-03-02T21:31:32.904Z,95471.06
2023-03-02T21:33:59.633Z,95468.63
2023-03-02T21:36:26.754Z,95463.84
2023-03-02T21:38:53.292Z,95469.72
2023-03-02T21:41:19.939Z,95469.72
2023-03-02T21:43:46.480Z,95469.41
2023-03-02T21:46:15.729Z,95473.97
2023-03-02T21:48:42.392Z,95467.81
2023-03-02T21:51:11.467Z,95473.44
2023-03-02T21:53:37.986Z,95475.00
2023-03-02T21:56:04.954Z,95464.56
2023-03-02T21:58:31.487Z,95472.59
2023-03-02T22:00:58.049Z,95469.91
2023-03-02T22:03:24.685Z,95470.19
2023-03-02T22:05:51.305Z,95465.34
2023-03-02T22:08:20.178Z,95468.84
2023-03-02T22:10:49.643Z,95466.44
2023-03-02T22:13:27.016Z,95467.47
2023-03-02T22:16:11.451Z,95467.75
2023-03-02T22:18:38.090Z,95465.06
2023-03-02T22:21:38.477Z,95464.78
2023-03-02T22:24:11.199Z,95463.97
2023-03-02T22:26:44.098Z,95466.91
2023-03-02T22:29:18.829Z,95463.44
2023-03-02T22:31:47.693Z,95467.16
2023-03-02T22:34:20.427Z,95464.75
2023-03-02T22:36:47.290Z,95466.63
2023-03-02T22:39:30.524Z,95480.28
2023-03-02T22:42:09.122Z,95473.84
2023-03-02T22:44:35.942Z,95473.84
2023-03-02T22:47:12.300Z,95472.22
2023-03-02T22:49:38.918Z,95476.78
2023-03-02T22:52:15.757Z,95476.22
2023-03-02T22:54:42.240Z,95475.41
2023-03-02T22:57:29.447Z,95479.41
2023-03-02T23:00:07.693Z,95478.88
2023-03-02T23:02:40.329Z,95483.41
2023-03-02T23:05:39.421Z,95475.91
2023-03-02T23:08:25.568Z,95481.50
2023-03-02T23:10:54.215Z,95482.56
2023-03-02T23:13:25.090Z,95482.81
2023-03-02T23:15:53.044Z,95480.97
2023-03-02T23:18:23.912Z,95481.25
2023-03-02T23:20:51.588Z,95483.91
2023-03-02T23:23:19.242Z,95476.13
2023-03-02T23:25:46.540Z,95486.84
2023-03-02T23:28:13.052Z,95487.09
2023-03-02T23:30:39.924Z,95491.38
2023-03-02T23:33:07.283Z,95489.78
2023-03-02T23:35:34.446Z,95486.53
2023-03-02T23:38:01.007Z,95485.47
2023-03-02T23:40:28.774Z,95485.75
2023-03-02T23:42:55.404Z,95489.47
2023-03-02T23:45:21.913Z,95484.94
2023-03-02T23:47:48.410Z,95479.59
2023-03-02T23:50:14.986Z,95479.59
2023-03-02T23:52:41.781Z,95476.91
2023-03-02T23:55:09.308Z,95483.31
2023-03-02T23:57:35.838Z,95488.13
